Station Historical Data
Daily Summary for January 6, 2018 Units:  Both    English   Metric
« Previous Day
Next Day »
Daily Weekly Monthly Yearly Custom
  High: Low: Average:
Temperature: TemperatureF °F /  -17.8 °C -3.9 °F /  -19.9 °C 0.8 °F /  -17.3 °C
Dew Point: DewpointF °F /  -17.8 °C -9.6 °F /  -23.1 °C -6.3 °F /  -21.3 °C
Humidity: Humidity% 61% 71%
Wind Speed: WindSpeedMPHmph /  0km/h - 4.7mph /  7.6km/h
Wind Gust: WindSpeedGustMPHmph /  0km/h - -
Wind- - West
Pressure: PressureIn in /  0 hPa 30.22 in /  1023.2 hPa -
Precipitation: 0.00 in /  0 mm    
Historical Graphs
 
 
Tabular Data for January 6, 2018
Time Temperature Dew Point Pressure Wind Wind Speed Wind Gust Humidity Rainfall Rate (Hourly)
TemperatureF °F /  -17.8 °C DewpointF °F /  -17.8 °C PressureInin /  0hPa Calm     Humidity% HourlyPrecipInin /  0mm
00:04 2.2 °F /  -16.6 °C -4.8 °F /  -20.4 °C 30.22in /  1023.2hPa West 10.0mph /  16.1km/h 16.0mph /  25.7km/h 72% 0.00in /  0mm
00:09 2.2 °F /  -16.6 °C -4.8 °F /  -20.4 °C 30.23in /  1023.6hPa West 8.0mph /  12.9km/h 17.0mph /  27.4km/h 72% 0.00in /  0mm
00:14 2.2 °F /  -16.6 °C -4.8 °F /  -20.4 °C 30.23in /  1023.6hPa West 8.0mph /  12.9km/h 17.0mph /  27.4km/h 72% 0.00in /  0mm
00:19 2.2 °F /  -16.6 °C -4.8 °F /  -20.4 °C 30.23in /  1023.6hPa West 7.0mph /  11.3km/h 13.0mph /  20.9km/h 72% 0.00in /  0mm
00:24 2.3 °F /  -16.5 °C -4.7 °F /  -20.4 °C 30.23in /  1023.6hPa WSW 3.0mph /  4.8km/h 18.0mph /  29km/h 72% 0.00in /  0mm
00:25 2.3 °F /  -16.5 °C -4.7 °F /  -20.4 °C 30.23in /  1023.6hPa West 7.0mph /  11.3km/h 18.0mph /  29km/h 72% 0.00in /  0mm
00:34 2.3 °F /  -16.5 °C -4.7 °F /  -20.4 °C 30.23in /  1023.6hPa West 8.0mph /  12.9km/h 11.0mph /  17.7km/h 72% 0.00in /  0mm
00:39 2.3 °F /  -16.5 °C -5.0 °F /  -20.6 °C 30.24in /  1023.9hPa West 5.0mph /  8km/h 14.0mph /  22.5km/h 71% 0.00in /  0mm
00:44 2.3 °F /  -16.5 °C -5.0 °F /  -20.6 °C 30.24in /  1023.9hPa West 7.0mph /  11.3km/h 14.0mph /  22.5km/h 71% 0.00in /  0mm
00:54 2.2 °F /  -16.6 °C -5.1 °F /  -20.6 °C 30.24in /  1023.9hPa West 6.0mph /  9.7km/h 12.0mph /  19.3km/h 71% 0.00in /  0mm
00:59 2.2 °F /  -16.6 °C -5.1 °F /  -20.6 °C 30.24in /  1023.9hPa West 6.0mph /  9.7km/h 11.0mph /  17.7km/h 71% 0.00in /  0mm
01:04 2.1 °F /  -16.6 °C -5.2 °F /  -20.7 °C 30.24in /  1023.9hPa West 5.0mph /  8km/h 9.0mph /  14.5km/h 71% 0.00in /  0mm
01:14 2.0 °F /  -16.7 °C -5.2 °F /  -20.7 °C 30.25in /  1024.3hPa West 5.0mph /  8km/h 15.0mph /  24.1km/h 71% 0.00in /  0mm
01:19 1.9 °F /  -16.7 °C -5.3 °F /  -20.7 °C 30.25in /  1024.3hPa West 6.0mph /  9.7km/h 15.0mph /  24.1km/h 71% 0.00in /  0mm
01:24 1.8 °F /  -16.8 °C -5.2 °F /  -20.7 °C 30.25in /  1024.3hPa West 7.0mph /  11.3km/h 14.0mph /  22.5km/h 72% 0.00in /  0mm
01:29 1.7 °F /  -16.8 °C -5.2 °F /  -20.7 °C 30.25in /  1024.3hPa West 7.0mph /  11.3km/h 14.0mph /  22.5km/h 72% 0.00in /  0mm
01:39 1.4 °F /  -17 °C -5.5 °F /  -20.8 °C 30.26in /  1024.6hPa West 6.0mph /  9.7km/h 13.0mph /  20.9km/h 72% 0.00in /  0mm
01:44 1.3 °F /  -17.1 °C -5.3 °F /  -20.7 °C 30.26in /  1024.6hPa West 6.0mph /  9.7km/h 11.0mph /  17.7km/h 73% 0.00in /  0mm
01:49 1.2 °F /  -17.1 °C -5.4 °F /  -20.8 °C 30.27in /  1024.9hPa WNW 5.0mph /  8km/h 9.0mph /  14.5km/h 73% 0.00in /  0mm
01:54 1.1 °F /  -17.2 °C -5.5 °F /  -20.8 °C 30.27in /  1024.9hPa West 5.0mph /  8km/h 12.0mph /  19.3km/h 73% 0.00in /  0mm
01:59 1.0 °F /  -17.2 °C -5.6 °F /  -20.9 °C 30.27in /  1024.9hPa WSW 5.0mph /  8km/h 9.0mph /  14.5km/h 73% 0.00in /  0mm
02:04 1.0 °F /  -17.2 °C -5.6 °F /  -20.9 °C 30.28in /  1025.3hPa West 9.0mph /  14.5km/h 12.0mph /  19.3km/h 73% 0.00in /  0mm
02:09 0.9 °F /  -17.3 °C -5.7 °F /  -20.9 °C 30.28in /  1025.3hPa WSW 5.0mph /  8km/h 12.0mph /  19.3km/h 73% 0.00in /  0mm
02:14 0.8 °F /  -17.3 °C -5.8 °F /  -21 °C 30.28in /  1025.3hPa West 6.0mph /  9.7km/h 12.0mph /  19.3km/h 73% 0.00in /  0mm
02:19 0.8 °F /  -17.3 °C -5.5 °F /  -20.8 °C 30.29in /  1025.6hPa WNW 8.0mph /  12.9km/h 10.0mph /  16.1km/h 74% 0.00in /  0mm
02:24 0.6 °F /  -17.4 °C -5.7 °F /  -20.9 °C 30.29in /  1025.6hPa West 6.0mph /  9.7km/h 11.0mph /  17.7km/h 74% 0.00in /  0mm
02:29 0.5 °F /  -17.5 °C -5.8 °F /  -21 °C 30.30in /  1026hPa West 7.0mph /  11.3km/h 11.0mph /  17.7km/h 74% 0.00in /  0mm
02:34 0.5 °F /  -17.5 °C -5.8 °F /  -21 °C 30.30in /  1026hPa West 6.0mph /  9.7km/h 14.0mph /  22.5km/h 74% 0.00in /  0mm
02:35 0.5 °F /  -17.5 °C -5.8 °F /  -21 °C 30.30in /  1026hPa West 6.0mph /  9.7km/h 14.0mph /  22.5km/h 74% 0.00in /  0mm
02:44 0.1 °F /  -17.7 °C -5.9 °F /  -21.1 °C 30.31in /  1026.3hPa West 6.0mph /  9.7km/h 13.0mph /  20.9km/h 75% 0.00in /  0mm
02:49 -0.1 °F /  -17.8 °C -6.1 °F /  -21.2 °C 30.31in /  1026.3hPa West 4.0mph /  6.4km/h 12.0mph /  19.3km/h 75% 0.00in /  0mm
02:54 -0.2 °F /  -17.9 °C -6.2 °F /  -21.2 °C 30.31in /  1026.3hPa WNW 7.0mph /  11.3km/h 12.0mph /  19.3km/h 75% 0.00in /  0mm
02:59 -0.2 °F /  -17.9 °C -6.0 °F /  -21.1 °C 30.31in /  1026.3hPa West 4.0mph /  6.4km/h 8.0mph /  12.9km/h 76% 0.00in /  0mm
03:04 -0.2 °F /  -17.9 °C -6.2 °F /  -21.2 °C 30.31in /  1026.3hPa West 5.0mph /  8km/h 8.0mph /  12.9km/h 75% 0.00in /  0mm
03:14 -0.3 °F /  -17.9 °C -6.1 °F /  -21.2 °C 30.31in /  1026.3hPa NW 8.0mph /  12.9km/h 12.0mph /  19.3km/h 76% 0.00in /  0mm
03:19 -0.4 °F /  -18 °C -6.2 °F /  -21.2 °C 30.32in /  1026.6hPa West 6.0mph /  9.7km/h 12.0mph /  19.3km/h 76% 0.00in /  0mm
03:24 -0.7 °F /  -18.2 °C -6.5 °F /  -21.4 °C 30.31in /  1026.3hPa West 7.0mph /  11.3km/h 13.0mph /  20.9km/h 76% 0.00in /  0mm
03:29 -0.9 °F /  -18.3 °C -6.6 °F /  -21.4 °C 30.32in /  1026.6hPa West 6.0mph /  9.7km/h 13.0mph /  20.9km/h 76% 0.00in /  0mm
03:34 -1.0 °F /  -18.3 °C -6.5 °F /  -21.4 °C 30.31in /  1026.3hPa West 7.0mph /  11.3km/h 13.0mph /  20.9km/h 77% 0.00in /  0mm
03:39 -1.1 °F /  -18.4 °C -6.6 °F /  -21.4 °C 30.31in /  1026.3hPa WSW 9.0mph /  14.5km/h 11.0mph /  17.7km/h 77% 0.00in /  0mm
03:44 -1.2 °F /  -18.4 °C -6.7 °F /  -21.5 °C 30.32in /  1026.6hPa West 5.0mph /  8km/h 11.0mph /  17.7km/h 77% 0.00in /  0mm
03:49 -1.2 °F /  -18.4 °C -6.7 °F /  -21.5 °C 30.32in /  1026.6hPa West 5.0mph /  8km/h 10.0mph /  16.1km/h 77% 0.00in /  0mm
03:54 -1.3 °F /  -18.5 °C -6.8 °F /  -21.6 °C 30.32in /  1026.6hPa West 3.0mph /  4.8km/h 10.0mph /  16.1km/h 77% 0.00in /  0mm
03:59 -1.4 °F /  -18.6 °C -6.9 °F /  -21.6 °C 30.32in /  1026.6hPa West 5.0mph /  8km/h 10.0mph /  16.1km/h 77% 0.00in /  0mm
04:04 -1.6 °F /  -18.7 °C -6.8 °F /  -21.6 °C 30.32in /  1026.6hPa WNW 5.0mph /  8km/h 8.0mph /  12.9km/h 78% 0.00in /  0mm
04:09 -1.8 °F /  -18.8 °C -7.0 °F /  -21.7 °C 30.32in /  1026.6hPa West 10.0mph /  16.1km/h 10.0mph /  16.1km/h 78% 0.00in /  0mm
04:14 -2.1 °F /  -18.9 °C -7.5 °F /  -21.9 °C 30.32in /  1026.6hPa West 5.0mph /  8km/h 10.0mph /  16.1km/h 77% 0.00in /  0mm
04:19 -2.3 °F /  -19.1 °C -7.7 °F /  -22.1 °C 30.32in /  1026.6hPa West 5.0mph /  8km/h 11.0mph /  17.7km/h 77% 0.00in /  0mm
04:24 -2.5 °F /  -19.2 °C -7.9 °F /  -22.2 °C 30.33in /  1027hPa West 5.0mph /  8km/h 11.0mph /  17.7km/h 77% 0.00in /  0mm
04:29 -2.5 °F /  -19.2 °C -7.9 °F /  -22.2 °C 30.33in /  1027hPa West 5.0mph /  8km/h 8.0mph /  12.9km/h 77% 0.00in /  0mm
04:34 -2.6 °F /  -19.2 °C -8.0 °F /  -22.2 °C 30.33in /  1027hPa West 7.0mph /  11.3km/h 11.0mph /  17.7km/h 77% 0.00in /  0mm
04:39 -2.7 °F /  -19.3 °C -8.1 °F /  -22.3 °C 30.33in /  1027hPa NW 6.0mph /  9.7km/h 10.0mph /  16.1km/h 77% 0.00in /  0mm
04:44 -2.8 °F /  -19.3 °C -8.2 °F /  -22.3 °C 30.33in /  1027hPa West 6.0mph /  9.7km/h 11.0mph /  17.7km/h 77% 0.00in /  0mm
04:49 -2.8 °F /  -19.3 °C -8.2 °F /  -22.3 °C 30.33in /  1027hPa WSW 5.0mph /  8km/h 13.0mph /  20.9km/h 77% 0.00in /  0mm
04:59 -2.8 °F /  -19.3 °C -8.2 °F /  -22.3 °C 30.33in /  1027hPa West 5.0mph /  8km/h 12.0mph /  19.3km/h 77% 0.00in /  0mm
05:04 -2.8 °F /  -19.3 °C -8.2 °F /  -22.3 °C 30.33in /  1027hPa WNW 3.0mph /  4.8km/h 8.0mph /  12.9km/h 77% 0.00in /  0mm
05:09 -2.7 °F /  -19.3 °C -8.1 °F /  -22.3 °C 30.34in /  1027.3hPa WNW 7.0mph /  11.3km/h 11.0mph /  17.7km/h 77% 0.00in /  0mm
05:14 -2.7 °F /  -19.3 °C -8.4 °F /  -22.4 °C 30.34in /  1027.3hPa West 3.0mph /  4.8km/h 11.0mph /  17.7km/h 76% 0.00in /  0mm
05:19 -2.8 °F /  -19.3 °C -8.5 °F /  -22.5 °C 30.34in /  1027.3hPa West 3.0mph /  4.8km/h 10.0mph /  16.1km/h 76% 0.00in /  0mm
05:29 -3.1 °F /  -19.5 °C -8.8 °F /  -22.7 °C 30.35in /  1027.7hPa West 5.0mph /  8km/h 10.0mph /  16.1km/h 76% 0.00in /  0mm
05:34 -3.3 °F /  -19.6 °C -9.0 °F /  -22.8 °C 30.35in /  1027.7hPa West 2.0mph /  3.2km/h 8.0mph /  12.9km/h 76% 0.00in /  0mm
05:39 -3.5 °F /  -19.7 °C -9.2 °F /  -22.9 °C 30.35in /  1027.7hPa West 4.0mph /  6.4km/h 10.0mph /  16.1km/h 76% 0.00in /  0mm
05:44 -3.6 °F /  -19.8 °C -9.3 °F /  -22.9 °C 30.35in /  1027.7hPa West 5.0mph /  8km/h 10.0mph /  16.1km/h 76% 0.00in /  0mm
05:49 -3.7 °F /  -19.8 °C -9.4 °F /  -23 °C 30.35in /  1027.7hPa WNW 6.0mph /  9.7km/h 9.0mph /  14.5km/h 76% 0.00in /  0mm
05:54 -3.8 °F /  -19.9 °C -9.5 °F /  -23.1 °C 30.35in /  1027.7hPa West 4.0mph /  6.4km/h 9.0mph /  14.5km/h 76% 0.00in /  0mm
05:59 -3.9 °F /  -19.9 °C -9.6 °F /  -23.1 °C 30.35in /  1027.7hPa West 4.0mph /  6.4km/h 7.0mph /  11.3km/h 76% 0.00in /  0mm
06:04 -3.8 °F /  -19.9 °C -9.5 °F /  -23.1 °C 30.35in /  1027.7hPa West 4.0mph /  6.4km/h 8.0mph /  12.9km/h 76% 0.00in /  0mm
06:09 -3.6 °F /  -19.8 °C -9.0 °F /  -22.8 °C 30.35in /  1027.7hPa WNW 4.0mph /  6.4km/h 8.0mph /  12.9km/h 77% 0.00in /  0mm
06:19 -3.3 °F /  -19.6 °C -8.7 °F /  -22.6 °C 30.36in /  1028hPa WSW 3.0mph /  4.8km/h 6.0mph /  9.7km/h 77% 0.00in /  0mm
06:24 -3.2 °F /  -19.6 °C -8.4 °F /  -22.4 °C 30.36in /  1028hPa WSW 3.0mph /  4.8km/h 10.0mph /  16.1km/h 78% 0.00in /  0mm
06:29 -3.2 °F /  -19.6 °C -8.4 °F /  -22.4 °C 30.36in /  1028hPa West 4.0mph /  6.4km/h 10.0mph /  16.1km/h 78% 0.00in /  0mm
06:34 -3.4 °F /  -19.7 °C -8.5 °F /  -22.5 °C 30.36in /  1028hPa West 5.0mph /  8km/h 9.0mph /  14.5km/h 78% 0.00in /  0mm
06:49 -3.6 °F /  -19.8 °C -8.7 °F /  -22.6 °C 30.37in /  1028.3hPa WSW 1.0mph /  1.6km/h 10.0mph /  16.1km/h 78% 0.00in /  0mm
06:54 -3.6 °F /  -19.8 °C -8.7 °F /  -22.6 °C 30.37in /  1028.3hPa West 5.0mph /  8km/h 10.0mph /  16.1km/h 78% 0.00in /  0mm
07:04 -3.8 °F /  -19.9 °C -8.9 °F /  -22.7 °C 30.38in /  1028.7hPa West 5.0mph /  8km/h 8.0mph /  12.9km/h 78% 0.00in /  0mm
07:09 -3.8 °F /  -19.9 °C -8.9 °F /  -22.7 °C 30.38in /  1028.7hPa West 4.0mph /  6.4km/h 8.0mph /  12.9km/h 78% 0.00in /  0mm
07:19 -3.9 °F /  -19.9 °C -9.0 °F /  -22.8 °C 30.39in /  1029hPa West 5.0mph /  8km/h 9.0mph /  14.5km/h 78% 0.00in /  0mm
07:24 -3.9 °F /  -19.9 °C -9.0 °F /  -22.8 °C 30.39in /  1029hPa West 5.0mph /  8km/h 9.0mph /  14.5km/h 78% 0.00in /  0mm
07:29 -3.9 °F /  -19.9 °C -9.0 °F /  -22.8 °C 30.39in /  1029hPa West 4.0mph /  6.4km/h 9.0mph /  14.5km/h 78% 0.00in /  0mm
07:34 -3.8 °F /  -19.9 °C -8.7 °F /  -22.6 °C 30.39in /  1029hPa West 5.0mph /  8km/h 11.0mph /  17.7km/h 79% 0.00in /  0mm
07:39 -3.7 °F /  -19.8 °C -8.6 °F /  -22.6 °C 30.40in /  1029.3hPa West 3.0mph /  4.8km/h 9.0mph /  14.5km/h 79% 0.00in /  0mm
07:49 -3.6 °F /  -19.8 °C -8.5 °F /  -22.5 °C 30.40in /  1029.3hPa West 4.0mph /  6.4km/h 8.0mph /  12.9km/h 79% 0.00in /  0mm
07:54 -3.6 °F /  -19.8 °C -8.5 °F /  -22.5 °C 30.40in /  1029.3hPa West 6.0mph /  9.7km/h 10.0mph /  16.1km/h 79% 0.00in /  0mm
07:59 -3.5 °F /  -19.7 °C -8.4 °F /  -22.4 °C 30.41in /  1029.7hPa WNW 5.0mph /  8km/h 10.0mph /  16.1km/h 79% 0.00in /  0mm
08:04 -3.4 °F /  -19.7 °C -8.3 °F /  -22.4 °C 30.41in /  1029.7hPa WNW 6.0mph /  9.7km/h 8.0mph /  12.9km/h 79% 0.00in /  0mm
08:09 -3.4 °F /  -19.7 °C -8.3 °F /  -22.4 °C 30.41in /  1029.7hPa West 5.0mph /  8km/h 10.0mph /  16.1km/h 79% 0.00in /  0mm
08:14 -3.4 °F /  -19.7 °C -8.3 °F /  -22.4 °C 30.41in /  1029.7hPa WNW 2.0mph /  3.2km/h 9.0mph /  14.5km/h 79% 0.00in /  0mm
08:19 -3.5 °F /  -19.7 °C -8.4 °F /  -22.4 °C 30.42in /  1030hPa West 4.0mph /  6.4km/h 9.0mph /  14.5km/h 79% 0.00in /  0mm
08:20 -3.5 °F /  -19.7 °C -8.4 °F /  -22.4 °C 30.42in /  1030hPa WNW 3.0mph /  4.8km/h 9.0mph /  14.5km/h 79% 0.00in /  0mm
08:29 -3.3 °F /  -19.6 °C -8.2 °F /  -22.3 °C 30.42in /  1030hPa West 4.0mph /  6.4km/h 8.0mph /  12.9km/h 79% 0.00in /  0mm
08:34 -3.1 °F /  -19.5 °C -8.0 °F /  -22.2 °C 30.43in /  1030.4hPa West 4.0mph /  6.4km/h 9.0mph /  14.5km/h 79% 0.00in /  0mm
08:39 -2.9 °F /  -19.4 °C -7.5 °F /  -21.9 °C 30.43in /  1030.4hPa West 4.0mph /  6.4km/h 8.0mph /  12.9km/h 80% 0.00in /  0mm
08:44 -2.7 °F /  -19.3 °C -7.3 °F /  -21.8 °C 30.43in /  1030.4hPa West 4.0mph /  6.4km/h 8.0mph /  12.9km/h 80% 0.00in /  0mm
08:49 -2.5 °F /  -19.2 °C -7.1 °F /  -21.7 °C 30.43in /  1030.4hPa West 4.0mph /  6.4km/h 8.0mph /  12.9km/h 80% 0.00in /  0mm
08:54 -2.3 °F /  -19.1 °C -7.0 °F /  -21.7 °C 30.44in /  1030.7hPa West 3.0mph /  4.8km/h 7.0mph /  11.3km/h 80% 0.00in /  0mm
08:59 -2.1 °F /  -18.9 °C -6.8 °F /  -21.6 °C 30.44in /  1030.7hPa WSW 3.0mph /  4.8km/h 6.0mph /  9.7km/h 80% 0.00in /  0mm
09:04 -2.0 °F /  -18.9 °C -6.7 °F /  -21.5 °C 30.44in /  1030.7hPa West 5.0mph /  8km/h 7.0mph /  11.3km/h 80% 0.00in /  0mm
09:09 -1.8 °F /  -18.8 °C -6.5 °F /  -21.4 °C 30.44in /  1030.7hPa West 3.0mph /  4.8km/h 7.0mph /  11.3km/h 80% 0.00in /  0mm
09:14 -1.6 °F /  -18.7 °C -6.3 °F /  -21.3 °C 30.44in /  1030.7hPa West 3.0mph /  4.8km/h 7.0mph /  11.3km/h 80% 0.00in /  0mm
09:19 -1.3 °F /  -18.5 °C -6.0 °F /  -21.1 °C 30.44in /  1030.7hPa West 4.0mph /  6.4km/h 10.0mph /  16.1km/h 80% 0.00in /  0mm
09:24 -1.0 °F /  -18.3 °C -5.7 °F /  -20.9 °C 30.45in /  1031hPa West 4.0mph /  6.4km/h 10.0mph /  16.1km/h 80% 0.00in /  0mm
09:29 -0.8 °F /  -18.2 °C -5.5 °F /  -20.8 °C 30.45in /  1031hPa West 4.0mph /  6.4km/h 8.0mph /  12.9km/h 80% 0.00in /  0mm
09:35 -0.7 °F /  -18.2 °C -5.4 °F /  -20.8 °C 30.45in /  1031hPa West 4.0mph /  6.4km/h 8.0mph /  12.9km/h 80% 0.00in /  0mm
09:44 -0.4 °F /  -18 °C -5.4 °F /  -20.8 °C 30.46in /  1031.4hPa West 5.0mph /  8km/h 10.0mph /  16.1km/h 79% 0.00in /  0mm
09:49 -0.2 °F /  -17.9 °C -5.2 °F /  -20.7 °C 30.46in /  1031.4hPa WSW 3.0mph /  4.8km/h 8.0mph /  12.9km/h 79% 0.00in /  0mm
09:54 0.0 °F /  -17.8 °C -5.0 °F /  -20.6 °C 30.46in /  1031.4hPa West 4.0mph /  6.4km/h 9.0mph /  14.5km/h 79% 0.00in /  0mm
09:59 0.1 °F /  -17.7 °C -5.1 °F /  -20.6 °C 30.46in /  1031.4hPa WSW 3.0mph /  4.8km/h 11.0mph /  17.7km/h 78% 0.00in /  0mm
10:04 0.2 °F /  -17.7 °C -5.0 °F /  -20.6 °C 30.47in /  1031.7hPa West 3.0mph /  4.8km/h 7.0mph /  11.3km/h 78% 0.00in /  0mm
10:09 0.4 °F /  -17.6 °C -4.8 °F /  -20.4 °C 30.47in /  1031.7hPa West 4.0mph /  6.4km/h 7.0mph /  11.3km/h 78% 0.00in /  0mm
10:14 0.6 °F /  -17.4 °C -4.6 °F /  -20.3 °C 30.47in /  1031.7hPa West 5.0mph /  8km/h 9.0mph /  14.5km/h 78% 0.00in /  0mm
10:19 0.9 °F /  -17.3 °C -4.4 °F /  -20.2 °C 30.47in /  1031.7hPa West 2.0mph /  3.2km/h 9.0mph /  14.5km/h 78% 0.00in /  0mm
10:24 1.0 °F /  -17.2 °C -4.3 °F /  -20.2 °C 30.47in /  1031.7hPa West 4.0mph /  6.4km/h 9.0mph /  14.5km/h 78% 0.00in /  0mm
10:29 1.0 °F /  -17.2 °C -4.5 °F /  -20.3 °C 30.48in /  1032.1hPa WSW 4.0mph /  6.4km/h 9.0mph /  14.5km/h 77% 0.00in /  0mm
10:34 1.2 °F /  -17.1 °C -4.3 °F /  -20.2 °C 30.48in /  1032.1hPa WSW 5.0mph /  8km/h 8.0mph /  12.9km/h 77% 0.00in /  0mm
10:39 1.1 °F /  -17.2 °C -4.4 °F /  -20.2 °C 30.48in /  1032.1hPa West 5.0mph /  8km/h 9.0mph /  14.5km/h 77% 0.00in /  0mm
10:44 1.2 °F /  -17.1 °C -4.3 °F /  -20.2 °C 30.48in /  1032.1hPa West 7.0mph /  11.3km/h 10.0mph /  16.1km/h 77% 0.00in /  0mm
10:49 1.3 °F /  -17.1 °C -4.2 °F /  -20.1 °C 30.48in /  1032.1hPa West 4.0mph /  6.4km/h 9.0mph /  14.5km/h 77% 0.00in /  0mm
10:54 1.3 °F /  -17.1 °C -4.2 °F /  -20.1 °C 30.48in /  1032.1hPa West 7.0mph /  11.3km/h 10.0mph /  16.1km/h 77% 0.00in /  0mm
10:59 1.6 °F /  -16.9 °C -3.9 °F /  -19.9 °C 30.49in /  1032.4hPa West 5.0mph /  8km/h 10.0mph /  16.1km/h 77% 0.00in /  0mm
11:09 2.2 °F /  -16.6 °C -3.4 °F /  -19.7 °C 30.49in /  1032.4hPa West 6.0mph /  9.7km/h 11.0mph /  17.7km/h 77% 0.00in /  0mm
11:19 3.0 °F /  -16.1 °C -3.1 °F /  -19.5 °C 30.48in /  1032.1hPa West 7.0mph /  11.3km/h 12.0mph /  19.3km/h 75% 0.00in /  0mm
11:24 3.1 °F /  -16.1 °C -3.0 °F /  -19.4 °C 30.48in /  1032.1hPa WSW 3.0mph /  4.8km/h 10.0mph /  16.1km/h 75% 0.00in /  0mm
11:29 3.0 °F /  -16.1 °C -3.4 °F /  -19.7 °C 30.48in /  1032.1hPa West 7.0mph /  11.3km/h 14.0mph /  22.5km/h 74% 0.00in /  0mm
11:39 3.3 °F /  -15.9 °C -3.4 °F /  -19.7 °C 30.48in /  1032.1hPa West 6.0mph /  9.7km/h 11.0mph /  17.7km/h 73% 0.00in /  0mm
11:44 3.3 °F /  -15.9 °C -3.7 °F /  -19.8 °C 30.48in /  1032.1hPa West 6.0mph /  9.7km/h 10.0mph /  16.1km/h 72% 0.00in /  0mm
11:54 3.5 °F /  -15.8 °C -3.2 °F /  -19.6 °C 30.48in /  1032.1hPa West 6.0mph /  9.7km/h 10.0mph /  16.1km/h 73% 0.00in /  0mm
11:59 3.6 °F /  -15.8 °C -3.1 °F /  -19.5 °C 30.48in /  1032.1hPa West 3.0mph /  4.8km/h 11.0mph /  17.7km/h 73% 0.00in /  0mm
12:04 3.7 °F /  -15.7 °C -3.0 °F /  -19.4 °C 30.48in /  1032.1hPa WNW 5.0mph /  8km/h 10.0mph /  16.1km/h 73% 0.00in /  0mm
12:09 3.8 °F /  -15.7 °C -3.2 °F /  -19.6 °C 30.48in /  1032.1hPa West 6.0mph /  9.7km/h 13.0mph /  20.9km/h 72% 0.00in /  0mm
12:14 3.7 °F /  -15.7 °C -3.3 °F /  -19.6 °C 30.48in /  1032.1hPa WSW 8.0mph /  12.9km/h 9.0mph /  14.5km/h 72% 0.00in /  0mm
12:19 3.7 °F /  -15.7 °C -3.3 °F /  -19.6 °C 30.48in /  1032.1hPa West 4.0mph /  6.4km/h 11.0mph /  17.7km/h 72% 0.00in /  0mm
12:24 4.2 °F /  -15.4 °C -2.5 °F /  -19.2 °C 30.48in /  1032.1hPa West 5.0mph /  8km/h 11.0mph /  17.7km/h 73% 0.00in /  0mm
12:29 4.4 °F /  -15.3 °C -2.6 °F /  -19.2 °C 30.48in /  1032.1hPa WNW 4.0mph /  6.4km/h 9.0mph /  14.5km/h 72% 0.00in /  0mm
12:34 4.4 °F /  -15.3 °C -2.6 °F /  -19.2 °C 30.49in /  1032.4hPa SW 2.0mph /  3.2km/h 8.0mph /  12.9km/h 72% 0.00in /  0mm
12:39 4.5 °F /  -15.3 °C -2.5 °F /  -19.2 °C 30.49in /  1032.4hPa West 7.0mph /  11.3km/h 11.0mph /  17.7km/h 72% 0.00in /  0mm
12:44 4.5 °F /  -15.3 °C -2.5 °F /  -19.2 °C 30.49in /  1032.4hPa WSW 5.0mph /  8km/h 10.0mph /  16.1km/h 72% 0.00in /  0mm
12:49 4.3 °F /  -15.4 °C -2.7 °F /  -19.3 °C 30.49in /  1032.4hPa West 6.0mph /  9.7km/h 10.0mph /  16.1km/h 72% 0.00in /  0mm
12:59 5.1 °F /  -14.9 °C -2.0 °F /  -18.9 °C 30.49in /  1032.4hPa West 4.0mph /  6.4km/h 9.0mph /  14.5km/h 72% 0.00in /  0mm
13:04 5.3 °F /  -14.8 °C -1.8 °F /  -18.8 °C 30.49in /  1032.4hPa West 5.0mph /  8km/h 10.0mph /  16.1km/h 72% 0.00in /  0mm
13:09 5.2 °F /  -14.9 °C -1.9 °F /  -18.8 °C 30.49in /  1032.4hPa WNW 5.0mph /  8km/h 10.0mph /  16.1km/h 72% 0.00in /  0mm
13:14 5.4 °F /  -14.8 °C -1.7 °F /  -18.7 °C 30.49in /  1032.4hPa WNW 4.0mph /  6.4km/h 9.0mph /  14.5km/h 72% 0.00in /  0mm
13:19 5.3 °F /  -14.8 °C -1.8 °F /  -18.8 °C 30.49in /  1032.4hPa NNW 3.0mph /  4.8km/h 9.0mph /  14.5km/h 72% 0.00in /  0mm
13:24 4.9 °F /  -15.1 °C -2.2 °F /  -19 °C 30.49in /  1032.4hPa West 4.0mph /  6.4km/h 9.0mph /  14.5km/h 72% 0.00in /  0mm
13:29 4.4 °F /  -15.3 °C -2.6 °F /  -19.2 °C 30.49in /  1032.4hPa WNW 10.0mph /  16.1km/h 11.0mph /  17.7km/h 72% 0.00in /  0mm
13:34 4.1 °F /  -15.5 °C -2.9 °F /  -19.4 °C 30.49in /  1032.4hPa NW 3.0mph /  4.8km/h 10.0mph /  16.1km/h 72% 0.00in /  0mm
13:40 3.8 °F /  -15.7 °C -3.5 °F /  -19.7 °C 30.50in /  1032.7hPa NW 5.0mph /  8km/h 10.0mph /  16.1km/h 71% 0.00in /  0mm
13:49 4.2 °F /  -15.4 °C -3.4 °F /  -19.7 °C 30.50in /  1032.7hPa West 7.0mph /  11.3km/h 10.0mph /  16.1km/h 70% 0.00in /  0mm
14:00 3.7 °F /  -15.7 °C -4.2 °F /  -20.1 °C 30.50in /  1032.7hPa WNW 7.0mph /  11.3km/h 13.0mph /  20.9km/h 69% 0.00in /  0mm
14:09 3.6 °F /  -15.8 °C -4.3 °F /  -20.2 °C 30.50in /  1032.7hPa WNW 6.0mph /  9.7km/h 11.0mph /  17.7km/h 69% 0.00in /  0mm
14:14 4.1 °F /  -15.5 °C -3.8 °F /  -19.9 °C 30.51in /  1033.1hPa WNW 5.0mph /  8km/h 11.0mph /  17.7km/h 69% 0.00in /  0mm
14:24 4.5 °F /  -15.3 °C -3.7 °F /  -19.8 °C 30.51in /  1033.1hPa WNW 6.0mph /  9.7km/h 12.0mph /  19.3km/h 68% 0.00in /  0mm
14:34 5.5 °F /  -14.7 °C -3.1 °F /  -19.5 °C 30.51in /  1033.1hPa WNW 5.0mph /  8km/h 9.0mph /  14.5km/h 67% 0.00in /  0mm
14:39 5.7 °F /  -14.6 °C -2.9 °F /  -19.4 °C 30.51in /  1033.1hPa NW 5.0mph /  8km/h 11.0mph /  17.7km/h 67% 0.00in /  0mm
14:44 5.7 °F /  -14.6 °C -3.2 °F /  -19.6 °C 30.52in /  1033.4hPa WNW 5.0mph /  8km/h 11.0mph /  17.7km/h 66% 0.00in /  0mm
14:49 5.7 °F /  -14.6 °C -3.2 °F /  -19.6 °C 30.52in /  1033.4hPa WNW 5.0mph /  8km/h 9.0mph /  14.5km/h 66% 0.00in /  0mm
14:54 5.8 °F /  -14.6 °C -2.8 °F /  -19.3 °C 30.52in /  1033.4hPa WNW 4.0mph /  6.4km/h 9.0mph /  14.5km/h 67% 0.00in /  0mm
14:59 5.6 °F /  -14.7 °C -3.3 °F /  -19.6 °C 30.52in /  1033.4hPa WNW 4.0mph /  6.4km/h 8.0mph /  12.9km/h 66% 0.00in /  0mm
15:04 5.3 °F /  -14.8 °C -3.6 °F /  -19.8 °C 30.53in /  1033.7hPa West 3.0mph /  4.8km/h 7.0mph /  11.3km/h 66% 0.00in /  0mm
15:09 5.1 °F /  -14.9 °C -3.5 °F /  -19.7 °C 30.53in /  1033.7hPa West 4.0mph /  6.4km/h 7.0mph /  11.3km/h 67% 0.00in /  0mm
15:14 5.1 °F /  -14.9 °C -3.2 °F /  -19.6 °C 30.53in /  1033.7hPa WNW 3.0mph /  4.8km/h 6.0mph /  9.7km/h 68% 0.00in /  0mm
15:19 5.1 °F /  -14.9 °C -3.2 °F /  -19.6 °C 30.53in /  1033.7hPa SW 8.0mph /  12.9km/h 9.0mph /  14.5km/h 68% 0.00in /  0mm
15:24 4.9 °F /  -15.1 °C -3.1 °F /  -19.5 °C 30.53in /  1033.7hPa West 6.0mph /  9.7km/h 8.0mph /  12.9km/h 69% 0.00in /  0mm
15:29 5.1 °F /  -14.9 °C -2.9 °F /  -19.4 °C 30.53in /  1033.7hPa West 12.0mph /  19.3km/h 12.0mph /  19.3km/h 69% 0.00in /  0mm
15:34 5.1 °F /  -14.9 °C -3.5 °F /  -19.7 °C 30.53in /  1033.7hPa West 6.0mph /  9.7km/h 14.0mph /  22.5km/h 67% 0.00in /  0mm
15:39 5.1 °F /  -14.9 °C -3.8 °F /  -19.9 °C 30.53in /  1033.7hPa West 6.0mph /  9.7km/h 14.0mph /  22.5km/h 66% 0.00in /  0mm
15:44 4.9 °F /  -15.1 °C -4.6 °F /  -20.3 °C 30.54in /  1034.1hPa West 5.0mph /  8km/h 9.0mph /  14.5km/h 64% 0.00in /  0mm
15:49 4.8 °F /  -15.1 °C -4.7 °F /  -20.4 °C 30.54in /  1034.1hPa West 5.0mph /  8km/h 9.0mph /  14.5km/h 64% 0.00in /  0mm
15:54 4.7 °F /  -15.2 °C -5.1 °F /  -20.6 °C 30.54in /  1034.1hPa West 5.0mph /  8km/h 8.0mph /  12.9km/h 63% 0.00in /  0mm
15:59 4.6 °F /  -15.2 °C -5.2 °F /  -20.7 °C 30.54in /  1034.1hPa West 5.0mph /  8km/h 8.0mph /  12.9km/h 63% 0.00in /  0mm
16:04 4.4 °F /  -15.3 °C -5.4 °F /  -20.8 °C 30.54in /  1034.1hPa WSW 5.0mph /  8km/h 10.0mph /  16.1km/h 63% 0.00in /  0mm
16:09 4.1 °F /  -15.5 °C -6.0 °F /  -21.1 °C 30.54in /  1034.1hPa WSW 6.0mph /  9.7km/h 12.0mph /  19.3km/h 62% 0.00in /  0mm
16:14 3.7 °F /  -15.7 °C -6.4 °F /  -21.3 °C 30.55in /  1034.4hPa WSW 6.0mph /  9.7km/h 12.0mph /  19.3km/h 62% 0.00in /  0mm
16:19 3.4 °F /  -15.9 °C -6.7 °F /  -21.5 °C 30.55in /  1034.4hPa WSW 3.0mph /  4.8km/h 8.0mph /  12.9km/h 62% 0.00in /  0mm
16:24 3.3 °F /  -15.9 °C -6.8 °F /  -21.6 °C 30.55in /  1034.4hPa West 7.0mph /  11.3km/h 8.0mph /  12.9km/h 62% 0.00in /  0mm
16:29 3.0 °F /  -16.1 °C -7.1 °F /  -21.7 °C 30.55in /  1034.4hPa West 4.0mph /  6.4km/h 9.0mph /  14.5km/h 62% 0.00in /  0mm
16:34 2.8 °F /  -16.2 °C -7.3 °F /  -21.8 °C 30.55in /  1034.4hPa WNW 3.0mph /  4.8km/h 12.0mph /  19.3km/h 62% 0.00in /  0mm
16:39 2.6 °F /  -16.3 °C -7.5 °F /  -21.9 °C 30.55in /  1034.4hPa West 3.0mph /  4.8km/h 9.0mph /  14.5km/h 62% 0.00in /  0mm
16:44 2.5 °F /  -16.4 °C -7.6 °F /  -22 °C 30.55in /  1034.4hPa West 4.0mph /  6.4km/h 10.0mph /  16.1km/h 62% 0.00in /  0mm
16:49 2.3 °F /  -16.5 °C -8.1 °F /  -22.3 °C 30.55in /  1034.4hPa West 5.0mph /  8km/h 11.0mph /  17.7km/h 61% 0.00in /  0mm
16:54 2.2 °F /  -16.6 °C -8.2 °F /  -22.3 °C 30.55in /  1034.4hPa West 5.0mph /  8km/h 11.0mph /  17.7km/h 61% 0.00in /  0mm
16:59 2.1 °F /  -16.6 °C -8.0 °F /  -22.2 °C 30.55in /  1034.4hPa WSW 5.0mph /  8km/h 11.0mph /  17.7km/h 62% 0.00in /  0mm
17:04 2.0 °F /  -16.7 °C -8.0 °F /  -22.2 °C 30.55in /  1034.4hPa WSW 4.0mph /  6.4km/h 11.0mph /  17.7km/h 62% 0.00in /  0mm
17:09 2.0 °F /  -16.7 °C -8.0 °F /  -22.2 °C 30.56in /  1034.8hPa West 6.0mph /  9.7km/h 9.0mph /  14.5km/h 62% 0.00in /  0mm
17:14 1.8 °F /  -16.8 °C -8.2 °F /  -22.3 °C 30.56in /  1034.8hPa West 4.0mph /  6.4km/h 9.0mph /  14.5km/h 62% 0.00in /  0mm
17:19 1.8 °F /  -16.8 °C -8.2 °F /  -22.3 °C 30.56in /  1034.8hPa WSW 5.0mph /  8km/h 10.0mph /  16.1km/h 62% 0.00in /  0mm
17:24 1.8 °F /  -16.8 °C -8.2 °F /  -22.3 °C 30.56in /  1034.8hPa WSW 5.0mph /  8km/h 11.0mph /  17.7km/h 62% 0.00in /  0mm
17:29 1.8 °F /  -16.8 °C -8.2 °F /  -22.3 °C 30.56in /  1034.8hPa WSW 5.0mph /  8km/h 11.0mph /  17.7km/h 62% 0.00in /  0mm
17:39 1.7 °F /  -16.8 °C -8.3 °F /  -22.4 °C 30.56in /  1034.8hPa West 5.0mph /  8km/h 10.0mph /  16.1km/h 62% 0.00in /  0mm
17:44 1.5 °F /  -16.9 °C -8.5 °F /  -22.5 °C 30.57in /  1035.1hPa SW 4.0mph /  6.4km/h 7.0mph /  11.3km/h 62% 0.00in /  0mm
17:49 1.4 °F /  -17 °C -8.6 °F /  -22.6 °C 30.57in /  1035.1hPa WNW 5.0mph /  8km/h 7.0mph /  11.3km/h 62% 0.00in /  0mm
17:54 1.3 °F /  -17.1 °C -8.7 °F /  -22.6 °C 30.57in /  1035.1hPa West 4.0mph /  6.4km/h 9.0mph /  14.5km/h 62% 0.00in /  0mm
18:04 1.2 °F /  -17.1 °C -8.5 °F /  -22.5 °C 30.57in /  1035.1hPa West 4.0mph /  6.4km/h 9.0mph /  14.5km/h 63% 0.00in /  0mm
18:09 1.2 °F /  -17.1 °C -8.5 °F /  -22.5 °C 30.57in /  1035.1hPa West 2.0mph /  3.2km/h 7.0mph /  11.3km/h 63% 0.00in /  0mm
18:14 1.2 °F /  -17.1 °C -8.5 °F /  -22.5 °C 30.57in /  1035.1hPa West 4.0mph /  6.4km/h 7.0mph /  11.3km/h 63% 0.00in /  0mm
18:19 1.0 °F /  -17.2 °C -8.7 °F /  -22.6 °C 30.57in /  1035.1hPa WSW 7.0mph /  11.3km/h 7.0mph /  11.3km/h 63% 0.00in /  0mm
18:24 1.0 °F /  -17.2 °C -8.7 °F /  -22.6 °C 30.57in /  1035.1hPa West 4.0mph /  6.4km/h 6.0mph /  9.7km/h 63% 0.00in /  0mm
18:29 1.0 °F /  -17.2 °C -8.7 °F /  -22.6 °C 30.58in /  1035.4hPa West 6.0mph /  9.7km/h 8.0mph /  12.9km/h 63% 0.00in /  0mm
18:34 0.9 °F /  -17.3 °C -8.8 °F /  -22.7 °C 30.58in /  1035.4hPa West 3.0mph /  4.8km/h 8.0mph /  12.9km/h 63% 0.00in /  0mm
18:39 0.8 °F /  -17.3 °C -8.9 °F /  -22.7 °C 30.58in /  1035.4hPa West 4.0mph /  6.4km/h 9.0mph /  14.5km/h 63% 0.00in /  0mm
18:44 0.8 °F /  -17.3 °C -9.2 °F /  -22.9 °C 30.58in /  1035.4hPa WSW 1.0mph /  1.6km/h 8.0mph /  12.9km/h 62% 0.00in /  0mm
18:49 0.7 °F /  -17.4 °C -9.3 °F /  -22.9 °C 30.58in /  1035.4hPa WSW 4.0mph /  6.4km/h 7.0mph /  11.3km/h 62% 0.00in /  0mm
18:54 0.7 °F /  -17.4 °C -9.0 °F /  -22.8 °C 30.58in /  1035.4hPa West 2.0mph /  3.2km/h 8.0mph /  12.9km/h 63% 0.00in /  0mm
18:59 0.6 °F /  -17.4 °C -9.1 °F /  -22.8 °C 30.58in /  1035.4hPa West 5.0mph /  8km/h 9.0mph /  14.5km/h 63% 0.00in /  0mm
19:04 0.6 °F /  -17.4 °C -9.1 °F /  -22.8 °C 30.58in /  1035.4hPa West 4.0mph /  6.4km/h 9.0mph /  14.5km/h 63% 0.00in /  0mm
19:14 0.4 °F /  -17.6 °C -8.9 °F /  -22.7 °C 30.58in /  1035.4hPa West 2.0mph /  3.2km/h 8.0mph /  12.9km/h 64% 0.00in /  0mm
19:19 0.4 °F /  -17.6 °C -8.9 °F /  -22.7 °C 30.58in /  1035.4hPa West 2.0mph /  3.2km/h 10.0mph /  16.1km/h 64% 0.00in /  0mm
19:29 0.3 °F /  -17.6 °C -9.3 °F /  -22.9 °C 30.59in /  1035.8hPa West 5.0mph /  8km/h 13.0mph /  20.9km/h 63% 0.00in /  0mm
19:34 0.3 °F /  -17.6 °C -9.3 °F /  -22.9 °C 30.59in /  1035.8hPa West 2.0mph /  3.2km/h 10.0mph /  16.1km/h 63% 0.00in /  0mm
19:39 0.2 °F /  -17.7 °C -9.4 °F /  -23 °C 30.59in /  1035.8hPa West 5.0mph /  8km/h 11.0mph /  17.7km/h 63% 0.00in /  0mm
19:44 0.1 °F /  -17.7 °C -9.5 °F /  -23.1 °C 30.60in /  1036.1hPa West 5.0mph /  8km/h 11.0mph /  17.7km/h 63% 0.00in /  0mm
19:54 0.1 °F /  -17.7 °C -9.5 °F /  -23.1 °C 30.59in /  1035.8hPa West 5.0mph /  8km/h 10.0mph /  16.1km/h 63% 0.00in /  0mm
19:59 0.1 °F /  -17.7 °C -9.2 °F /  -22.9 °C 30.60in /  1036.1hPa West 5.0mph /  8km/h 10.0mph /  16.1km/h 64% 0.00in /  0mm
20:04 0.1 °F /  -17.7 °C -9.2 °F /  -22.9 °C 30.59in /  1035.8hPa West 4.0mph /  6.4km/h 10.0mph /  16.1km/h 64% 0.00in /  0mm
20:09 0.0 °F /  -17.8 °C -9.0 °F /  -22.8 °C 30.60in /  1036.1hPa West 4.0mph /  6.4km/h 9.0mph /  14.5km/h 65% 0.00in /  0mm
20:19 0.1 °F /  -17.7 °C -8.9 °F /  -22.7 °C 30.60in /  1036.1hPa West 4.0mph /  6.4km/h 8.0mph /  12.9km/h 65% 0.00in /  0mm
20:24 0.1 °F /  -17.7 °C -8.6 °F /  -22.6 °C 30.60in /  1036.1hPa West 4.0mph /  6.4km/h 8.0mph /  12.9km/h 66% 0.00in /  0mm
20:29 0.0 °F /  -17.8 °C -8.7 °F /  -22.6 °C 30.61in /  1036.5hPa West 4.0mph /  6.4km/h 8.0mph /  12.9km/h 66% 0.00in /  0mm
20:34 0.0 °F /  -17.8 °C -8.7 °F /  -22.6 °C 30.61in /  1036.5hPa West 3.0mph /  4.8km/h 10.0mph /  16.1km/h 66% 0.00in /  0mm
20:39 0.0 °F /  -17.8 °C -8.7 °F /  -22.6 °C 30.60in /  1036.1hPa West 4.0mph /  6.4km/h 10.0mph /  16.1km/h 66% 0.00in /  0mm
20:44 -0.1 °F /  -17.8 °C -8.5 °F /  -22.5 °C 30.60in /  1036.1hPa West 5.0mph /  8km/h 10.0mph /  16.1km/h 67% 0.00in /  0mm
20:49 -0.2 °F /  -17.9 °C -8.6 °F /  -22.6 °C 30.60in /  1036.1hPa NW 6.0mph /  9.7km/h 9.0mph /  14.5km/h 67% 0.00in /  0mm
20:54 -0.1 °F /  -17.8 °C -8.5 °F /  -22.5 °C 30.60in /  1036.1hPa WSW 6.0mph /  9.7km/h 11.0mph /  17.7km/h 67% 0.00in /  0mm
20:59 -0.2 °F /  -17.9 °C -8.6 °F /  -22.6 °C 30.60in /  1036.1hPa West 5.0mph /  8km/h 11.0mph /  17.7km/h 67% 0.00in /  0mm
21:04 -0.3 °F /  -17.9 °C -8.4 °F /  -22.4 °C 30.61in /  1036.5hPa West 5.0mph /  8km/h 9.0mph /  14.5km/h 68% 0.00in /  0mm
21:09 -0.3 °F /  -17.9 °C -8.4 °F /  -22.4 °C 30.61in /  1036.5hPa West 5.0mph /  8km/h 9.0mph /  14.5km/h 68% 0.00in /  0mm
21:14 -0.4 °F /  -18 °C -8.4 °F /  -22.4 °C 30.61in /  1036.5hPa West 3.0mph /  4.8km/h 8.0mph /  12.9km/h 68% 0.00in /  0mm
21:19 -0.4 °F /  -18 °C -8.2 °F /  -22.3 °C 30.61in /  1036.5hPa WSW 3.0mph /  4.8km/h 8.0mph /  12.9km/h 69% 0.00in /  0mm
21:24 -0.4 °F /  -18 °C -8.2 °F /  -22.3 °C 30.61in /  1036.5hPa West 4.0mph /  6.4km/h 8.0mph /  12.9km/h 69% 0.00in /  0mm
21:39 -0.3 °F /  -17.9 °C -7.8 °F /  -22.1 °C 30.61in /  1036.5hPa WNW 7.0mph /  11.3km/h 7.0mph /  11.3km/h 70% 0.00in /  0mm
21:44 -0.3 °F /  -17.9 °C -7.8 °F /  -22.1 °C 30.61in /  1036.5hPa WSW 4.0mph /  6.4km/h 8.0mph /  12.9km/h 70% 0.00in /  0mm
21:49 -0.3 °F /  -17.9 °C -7.8 °F /  -22.1 °C 30.61in /  1036.5hPa West 3.0mph /  4.8km/h 8.0mph /  12.9km/h 70% 0.00in /  0mm
21:54 -0.1 °F /  -17.8 °C -7.3 °F /  -21.8 °C 30.61in /  1036.5hPa WSW 3.0mph /  4.8km/h 7.0mph /  11.3km/h 71% 0.00in /  0mm
22:04 0.1 °F /  -17.7 °C -7.1 °F /  -21.7 °C 30.61in /  1036.5hPa WSW 3.0mph /  4.8km/h 7.0mph /  11.3km/h 71% 0.00in /  0mm
22:09 0.4 °F /  -17.6 °C -6.5 °F /  -21.4 °C 30.61in /  1036.5hPa WSW 4.0mph /  6.4km/h 7.0mph /  11.3km/h 72% 0.00in /  0mm
22:14 0.6 °F /  -17.4 °C -6.6 °F /  -21.4 °C 30.61in /  1036.5hPa WSW 3.0mph /  4.8km/h 7.0mph /  11.3km/h 71% 0.00in /  0mm
22:19 0.8 °F /  -17.3 °C -6.1 °F /  -21.2 °C 30.61in /  1036.5hPa WSW 3.0mph /  4.8km/h 7.0mph /  11.3km/h 72% 0.00in /  0mm
22:24 0.9 °F /  -17.3 °C -6.0 °F /  -21.1 °C 30.61in /  1036.5hPa West 3.0mph /  4.8km/h 5.0mph /  8km/h 72% 0.00in /  0mm
22:34 1.2 °F /  -17.1 °C -5.7 °F /  -20.9 °C 30.61in /  1036.5hPa WSW 2.0mph /  3.2km/h 5.0mph /  8km/h 72% 0.00in /  0mm
22:39 1.3 °F /  -17.1 °C -5.6 °F /  -20.9 °C 30.61in /  1036.5hPa WSW 2.0mph /  3.2km/h 5.0mph /  8km/h 72% 0.00in /  0mm
22:44 1.4 °F /  -17 °C -5.5 °F /  -20.8 °C 30.61in /  1036.5hPa WSW 2.0mph /  3.2km/h 5.0mph /  8km/h 72% 0.00in /  0mm
22:50 1.5 °F /  -16.9 °C -5.4 °F /  -20.8 °C 30.61in /  1036.5hPa WSW 3.0mph /  4.8km/h 6.0mph /  9.7km/h 72% 0.00in /  0mm
22:59 1.7 °F /  -16.8 °C -5.0 °F /  -20.6 °C 30.61in /  1036.5hPa SW 3.0mph /  4.8km/h 7.0mph /  11.3km/h 73% 0.00in /  0mm
23:04 1.8 °F /  -16.8 °C -4.9 °F /  -20.5 °C 30.61in /  1036.5hPa WSW 3.0mph /  4.8km/h 7.0mph /  11.3km/h 73% 0.00in /  0mm
23:09 1.8 °F /  -16.8 °C -4.9 °F /  -20.5 °C 30.61in /  1036.5hPa WSW 3.0mph /  4.8km/h 6.0mph /  9.7km/h 73% 0.00in /  0mm
23:14 1.9 °F /  -16.7 °C -4.8 °F /  -20.4 °C 30.61in /  1036.5hPa WSW 3.0mph /  4.8km/h 7.0mph /  11.3km/h 73% 0.00in /  0mm
23:19 1.9 °F /  -16.7 °C -5.1 °F /  -20.6 °C 30.61in /  1036.5hPa WSW 3.0mph /  4.8km/h 7.0mph /  11.3km/h 72% 0.00in /  0mm
23:24 1.9 °F /  -16.7 °C -5.1 °F /  -20.6 °C 30.61in /  1036.5hPa WSW 3.0mph /  4.8km/h 7.0mph /  11.3km/h 72% 0.00in /  0mm
23:29 1.8 °F /  -16.8 °C -5.2 °F /  -20.7 °C 30.61in /  1036.5hPa WSW 2.0mph /  3.2km/h 10.0mph /  16.1km/h 72% 0.00in /  0mm
23:34 1.9 °F /  -16.7 °C -5.1 °F /  -20.6 °C 30.61in /  1036.5hPa WSW 4.0mph /  6.4km/h 10.0mph /  16.1km/h 72% 0.00in /  0mm
23:39 1.9 °F /  -16.7 °C -4.8 °F /  -20.4 °C 30.61in /  1036.5hPa WSW 4.0mph /  6.4km/h 8.0mph /  12.9km/h 73% 0.00in /  0mm
23:44 1.9 °F /  -16.7 °C -4.8 °F /  -20.4 °C 30.61in /  1036.5hPa WSW 4.0mph /  6.4km/h 8.0mph /  12.9km/h 73% 0.00in /  0mm
23:49 2.0 °F /  -16.7 °C -4.7 °F /  -20.4 °C 30.61in /  1036.5hPa WSW 4.0mph /  6.4km/h 8.0mph /  12.9km/h 73% 0.00in /  0mm
23:54 2.0 °F /  -16.7 °C -4.7 °F /  -20.4 °C 30.61in /  1036.5hPa WSW 4.0mph /  6.4km/h 9.0mph /  14.5km/h 73% 0.00in /  0mm
23:59 2.0 °F /  -16.7 °C -4.7 °F /  -20.4 °C 30.61in /  1036.5hPa WSW 4.0mph /  6.4km/h 9.0mph /  14.5km/h 73% 0.00in /  0mm
Buffalo, New York, USA
Compliments of Weather Underground - 2.25 mb